Time;durP1;ratioP1;P1;durP2;ratioP2;P2;SDS_P1;SDS_P2;PMS_P1;PMS_P2;Temp;Humidity;BMP_temperature;BMP_pressure;BME280_temperature;BME280_humidity;BME280_pressure;Samples;Min_cycle;Max_cycle;Signal;HPM_P1;HPM_P2
2022/07/27 00:02:51;;;;;;;9.95;1.80;;;17.80;99.90;;;;;;6311115;28;20359;-68
2022/07/27 00:05:57;;;;;;;6.05;1.55;;;17.70;99.90;;;;;;6311455;28;20443;-68
2022/07/27 00:09:02;;;;;;;2.60;1.25;;;17.70;99.90;;;;;;6311108;28;20581;-68
2022/07/27 00:12:09;;;;;;;7.00;1.58;;;17.80;99.90;;;;;;6311467;28;20267;-68
2022/07/27 00:15:16;;;;;;;6.65;1.58;;;17.70;99.90;;;;;;6311580;28;20620;-68
2022/07/27 00:18:22;;;;;;;9.18;1.50;;;17.70;99.90;;;;;;6311073;28;20299;-68
2022/07/27 00:21:27;;;;;;;8.38;1.52;;;17.70;99.90;;;;;;6311228;28;20549;-68
2022/07/27 00:24:33;;;;;;;5.93;1.40;;;17.60;99.90;;;;;;6311147;28;20318;-68
2022/07/27 00:27:38;;;;;;;5.07;1.25;;;17.60;99.90;;;;;;6311072;28;20290;-68
2022/07/27 00:30:44;;;;;;;3.78;1.23;;;17.70;99.90;;;;;;6312069;28;20270;-68
2022/07/27 00:33:50;;;;;;;2.38;1.40;;;17.70;99.90;;;;;;6311002;28;20302;-68
2022/07/27 00:36:55;;;;;;;8.50;1.23;;;17.70;99.90;;;;;;6311780;28;20298;-68
2022/07/27 00:40:01;;;;;;;7.05;1.45;;;17.70;99.90;;;;;;6311211;28;20302;-68
2022/07/27 00:43:06;;;;;;;4.50;1.50;;;17.50;99.90;;;;;;6310658;28;20293;-68
2022/07/27 00:46:12;;;;;;;4.13;1.40;;;17.60;99.90;;;;;;6311178;28;20274;-68
2022/07/27 00:49:18;;;;;;;2.17;1.30;;;17.60;99.90;;;;;;6310374;28;20585;-68
2022/07/27 00:52:25;;;;;;;10.98;1.50;;;17.60;99.90;;;;;;6310434;28;20566;-68
2022/07/27 00:55:30;;;;;;;10.77;1.65;;;17.50;99.90;;;;;;6310708;28;20286;-68
2022/07/27 00:58:36;;;;;;;6.93;1.40;;;17.50;99.90;;;;;;6310268;28;20472;-68
2022/07/27 01:01:43;;;;;;;5.47;1.30;;;17.50;99.90;;;;;;6311034;28;20270;-68
2022/07/27 01:04:48;;;;;;;19.15;2.03;;;17.50;99.90;;;;;;6310828;28;20285;-68
2022/07/27 01:07:58;;;;;;;11.23;1.60;;;17.40;99.90;;;;;;6310501;28;20306;-68
2022/07/27 01:11:04;;;;;;;6.25;1.27;;;17.40;99.90;;;;;;6311477;28;20267;-68
2022/07/27 01:14:13;;;;;;;7.57;1.42;;;17.40;99.90;;;;;;6311277;28;20302;-68
2022/07/27 01:17:19;;;;;;;6.47;1.38;;;17.40;99.90;;;;;;6315317;28;20306;-68
2022/07/27 01:20:25;;;;;;;7.18;1.73;;;17.40;99.90;;;;;;6315834;28;20578;-68
2022/07/27 01:23:32;;;;;;;7.07;1.60;;;17.40;99.90;;;;;;6315419;28;20457;-68
2022/07/27 01:26:39;;;;;;;6.32;1.20;;;17.20;99.90;;;;;;6315892;28;20294;-68
2022/07/27 01:29:44;;;;;;;6.60;1.45;;;17.20;99.90;;;;;;6315120;28;20294;-68
2022/07/27 01:32:49;;;;;;;5.07;1.35;;;17.20;99.90;;;;;;6315070;28;20484;-68
2022/07/27 01:35:56;;;;;;;5.40;1.52;;;17.20;99.90;;;;;;6314846;28;20293;-68
2022/07/27 01:39:03;;;;;;;6.88;1.40;;;17.30;99.90;;;;;;6315089;28;20302;-68
2022/07/27 01:42:11;;;;;;;1.52;1.17;;;17.10;99.90;;;;;;6314381;28;20270;-68
2022/07/27 01:45:16;;;;;;;3.75;1.40;;;17.20;99.90;;;;;;6315581;28;20278;-68
2022/07/27 01:48:22;;;;;;;3.67;1.40;;;17.20;99.90;;;;;;6314509;28;20478;-68
2022/07/27 01:51:27;;;;;;;5.68;1.30;;;17.20;99.90;;;;;;6315525;28;20275;-68
2022/07/27 01:54:34;;;;;;;3.03;1.30;;;17.10;99.90;;;;;;6314311;28;20311;-68
2022/07/27 01:57:39;;;;;;;7.13;1.25;;;17.10;99.90;;;;;;6314409;28;20294;-68
2022/07/27 02:00:45;;;;;;;7.72;1.40;;;17.10;99.90;;;;;;6314956;28;20270;-68
2022/07/27 02:03:51;;;;;;;6.03;1.25;;;17.20;99.90;;;;;;6314253;28;20290;-68
2022/07/27 02:06:56;;;;;;;13.60;1.92;;;17.10;99.90;;;;;;6314323;28;20554;-68
2022/07/27 02:10:04;;;;;;;11.13;1.75;;;17.10;99.90;;;;;;6313969;28;20557;-68
2022/07/27 02:13:09;;;;;;;5.55;1.55;;;17.10;99.90;;;;;;6313903;28;20299;-68
2022/07/27 02:16:26;;;;;;;4.57;1.50;;;17.10;99.90;;;;;;6314032;28;20286;-68
2022/07/27 02:19:32;;;;;;;11.10;1.65;;;17.10;99.90;;;;;;6313996;28;20294;-68
2022/07/27 02:22:37;;;;;;;8.32;1.38;;;17.10;99.90;;;;;;6313766;28;20290;-68
2022/07/27 02:25:44;;;;;;;10.20;2.17;;;17.10;99.90;;;;;;6312754;28;20270;-68
2022/07/27 02:28:50;;;;;;;19.17;2.22;;;16.90;99.90;;;;;;6313841;28;20302;-68
2022/07/27 02:31:55;;;;;;;10.82;1.58;;;17.00;99.90;;;;;;6313934;28;20274;-68
2022/07/27 02:35:01;;;;;;;5.30;1.60;;;17.10;99.90;;;;;;6313440;28;20294;-68
2022/07/27 02:38:23;;;;;;;8.65;1.60;;;17.00;99.90;;;;;;6313261;28;20310;-68
2022/07/27 02:41:30;;;;;;;11.13;1.60;;;17.00;99.90;;;;;;6313973;28;20286;-68
2022/07/27 02:44:35;;;;;;;12.07;2.03;;;16.90;99.90;;;;;;6313142;28;20294;-68
2022/07/27 02:47:41;;;;;;;7.55;1.85;;;17.00;99.90;;;;;;6313364;28;20290;-68
2022/07/27 02:50:46;;;;;;;6.45;1.60;;;17.00;99.90;;;;;;6313841;28;20291;-68
2022/07/27 02:53:51;;;;;;;3.83;1.60;;;17.10;99.90;;;;;;6295392;28;20298;-68
2022/07/27 02:56:59;;;;;;;5.20;1.25;;;17.10;99.90;;;;;;6313451;28;20472;-68
2022/07/27 03:00:06;;;;;;;11.43;2.20;;;17.20;99.90;;;;;;6312125;28;20421;-68
2022/07/27 03:03:14;;;;;;;2.83;1.50;;;17.10;99.90;;;;;;6311032;28;20295;-68
2022/07/27 03:06:20;;;;;;;7.57;1.90;;;17.10;99.90;;;;;;6313825;28;20262;-68
2022/07/27 03:09:25;;;;;;;4.57;1.33;;;17.00;99.90;;;;;;6312401;28;20294;-68
2022/07/27 03:12:38;;;;;;;5.03;1.63;;;16.90;99.90;;;;;;6312620;28;20375;-68
2022/07/27 03:15:44;;;;;;;5.40;1.33;;;17.00;99.90;;;;;;6312923;28;20270;-68
2022/07/27 03:18:49;;;;;;;4.50;1.40;;;16.80;99.90;;;;;;6312489;28;20294;-68
2022/07/27 03:21:54;;;;;;;8.85;1.60;;;16.90;99.90;;;;;;6311958;28;20275;-67
2022/07/27 03:25:00;;;;;;;3.50;1.48;;;16.90;99.90;;;;;;6312505;28;20562;-67
2022/07/27 03:28:07;;;;;;;5.90;1.77;;;16.90;99.90;;;;;;6312247;28;20298;-68
2022/07/27 03:31:12;;;;;;;3.30;1.50;;;16.80;99.90;;;;;;6313028;28;20270;-68
2022/07/27 03:34:18;;;;;;;4.43;1.40;;;16.90;99.90;;;;;;6312141;28;20471;-68
2022/07/27 03:37:23;;;;;;;7.53;1.75;;;17.00;99.90;;;;;;6311602;28;20294;-68
2022/07/27 03:40:31;;;;;;;7.18;2.00;;;17.00;99.90;;;;;;6312263;28;20303;-68
2022/07/27 03:43:39;;;;;;;10.05;1.50;;;17.00;99.90;;;;;;6311802;28;20294;-68
2022/07/27 03:46:44;;;;;;;11.77;2.05;;;17.10;99.90;;;;;;6312280;28;20270;-68
2022/07/27 03:49:51;;;;;;;10.85;2.22;;;17.10;99.90;;;;;;6311851;28;20309;-68
2022/07/27 03:52:56;;;;;;;7.60;1.90;;;17.10;99.90;;;;;;6312223;28;20290;-68
2022/07/27 03:56:02;;;;;;;5.03;1.60;;;17.00;99.90;;;;;;6311803;28;20270;-68
2022/07/27 03:59:09;;;;;;;7.97;1.45;;;17.10;99.90;;;;;;6311647;28;20574;-68
2022/07/27 04:02:15;;;;;;;4.90;1.52;;;17.10;99.90;;;;;;6311648;28;20314;-68
2022/07/27 04:05:20;;;;;;;2.95;1.50;;;17.10;99.90;;;;;;6312171;28;20294;-68
2022/07/27 04:08:26;;;;;;;2.90;1.60;;;17.10;99.90;;;;;;6311220;28;20298;-68
2022/07/27 04:11:31;;;;;;;5.05;1.40;;;17.20;99.90;;;;;;6312231;28;20266;-68
2022/07/27 04:14:39;;;;;;;7.25;1.73;;;17.30;99.90;;;;;;6311722;28;20294;-68
2022/07/27 04:17:44;;;;;;;5.68;1.70;;;17.30;99.90;;;;;;6310915;28;20577;-68
2022/07/27 04:21:04;;;;;;;6.80;2.15;;;17.30;99.90;;;;;;6312468;28;20270;-68
2022/07/27 04:24:12;;;;;;;7.90;1.85;;;17.30;99.90;;;;;;6311288;28;20382;-68
2022/07/27 04:27:17;;;;;;;9.18;2.17;;;17.30;99.90;;;;;;6310641;28;20294;-68
2022/07/27 04:30:24;;;;;;;5.00;1.80;;;17.30;99.90;;;;;;6311318;28;20274;-68
2022/07/27 04:33:30;;;;;;;5.43;1.58;;;17.40;99.90;;;;;;6311269;28;20299;-68
2022/07/27 04:36:36;;;;;;;6.50;1.65;;;17.40;99.90;;;;;;6310794;28;20270;-68
2022/07/27 04:39:41;;;;;;;10.93;1.85;;;17.40;99.90;;;;;;6310618;28;20310;-68
2022/07/27 04:42:46;;;;;;;2.75;1.70;;;17.40;99.90;;;;;;6310628;28;20294;-68
2022/07/27 04:45:55;;;;;;;4.72;1.42;;;17.40;99.90;;;;;;6310955;28;20282;-68
2022/07/27 04:49:00;;;;;;;4.53;1.50;;;17.50;99.90;;;;;;6309915;28;20298;-68
2022/07/27 04:52:06;;;;;;;9.63;1.95;;;17.60;99.90;;;;;;6310363;28;20274;-68
2022/07/27 04:55:11;;;;;;;6.72;1.60;;;17.70;99.90;;;;;;6310550;28;20270;-68
2022/07/27 04:58:17;;;;;;;5.95;1.70;;;17.70;99.90;;;;;;6310343;28;20486;-68
2022/07/27 05:01:24;;;;;;;7.05;2.20;;;17.60;99.90;;;;;;6310762;28;20270;-68
2022/07/27 05:04:31;;;;;;;16.63;2.00;;;17.60;99.90;;;;;;6310700;28;20601;-67
2022/07/27 05:07:36;;;;;;;6.72;1.80;;;17.70;99.90;;;;;;6309933;28;20286;-67
2022/07/27 05:10:42;;;;;;;6.13;1.58;;;17.70;99.90;;;;;;6311095;28;20270;-67
2022/07/27 05:13:47;;;;;;;8.30;2.47;;;17.80;99.90;;;;;;6310146;28;20486;-67
2022/07/27 05:16:53;;;;;;;7.07;1.80;;;17.70;99.90;;;;;;6309945;28;20274;-67
2022/07/27 05:20:00;;;;;;;6.00;1.52;;;17.70;99.90;;;;;;6310350;28;20283;-67
2022/07/27 05:23:05;;;;;;;3.13;1.52;;;17.70;99.90;;;;;;6309640;28;20303;-66
2022/07/27 05:26:12;;;;;;;5.38;1.63;;;17.70;99.90;;;;;;6310391;28;20575;-67
2022/07/27 05:29:17;;;;;;;3.58;1.80;;;17.60;99.90;;;;;;6309756;28;20297;-67
2022/07/27 05:32:24;;;;;;;5.25;1.63;;;17.70;99.90;;;;;;6309732;28;20593;-67
2022/07/27 05:35:29;;;;;;;7.75;1.58;;;17.60;99.90;;;;;;6309800;28;20269;-67
2022/07/27 05:38:38;;;;;;;8.38;1.88;;;17.60;99.90;;;;;;6309288;28;20299;-67
2022/07/27 05:41:43;;;;;;;4.85;1.67;;;17.60;99.90;;;;;;6310272;28;20567;-67
2022/07/27 05:44:48;;;;;;;4.00;1.50;;;17.70;99.90;;;;;;6309708;28;20298;-66
2022/07/27 05:47:57;;;;;;;6.10;1.80;;;17.70;99.90;;;;;;6309703;28;20294;-66
2022/07/27 05:51:03;;;;;;;6.40;1.90;;;17.80;99.90;;;;;;6310325;28;20275;-66
2022/07/27 05:54:08;;;;;;;7.18;1.75;;;17.70;99.90;;;;;;6309656;28;20294;-67
2022/07/27 05:57:14;;;;;;;5.95;1.90;;;17.80;99.90;;;;;;6309280;28;20370;-68
2022/07/27 06:00:19;;;;;;;4.63;1.67;;;17.80;99.90;;;;;;6310497;28;20306;-68
2022/07/27 06:03:27;;;;;;;6.72;1.88;;;17.70;99.90;;;;;;6313917;28;20294;-67
2022/07/27 06:09:55;;;;;;;4.95;1.98;;;17.80;99.90;;;;;;6296059;28;20276;-67
2022/07/27 06:13:02;;;;;;;7.80;2.47;;;17.90;99.90;;;;;;6313943;28;20314;-67
2022/07/27 06:16:08;;;;;;;6.78;1.80;;;18.00;99.90;;;;;;6314594;28;20275;-68
2022/07/27 06:19:15;;;;;;;7.65;1.70;;;18.00;99.90;;;;;;6313799;28;20298;-67
2022/07/27 06:22:20;;;;;;;10.55;2.25;;;18.00;99.90;;;;;;6313298;28;20290;-67
2022/07/27 06:25:28;;;;;;;3.95;1.48;;;17.90;99.90;;;;;;6313734;28;20270;-68
2022/07/27 06:28:39;;;;;;;4.55;1.80;;;18.00;99.90;;;;;;6295663;28;20294;-67
2022/07/27 06:31:45;;;;;;;6.60;2.08;;;18.10;99.90;;;;;;6313952;28;20270;-67
2022/07/27 06:34:52;;;;;;;7.50;2.00;;;18.10;99.90;;;;;;6313516;28;20291;-67
2022/07/27 06:37:57;;;;;;;3.20;1.65;;;18.00;99.90;;;;;;6313746;28;20290;-68
2022/07/27 06:41:03;;;;;;;14.35;1.90;;;18.10;99.90;;;;;;6313942;28;20569;-68
2022/07/27 06:44:10;;;;;;;6.53;1.60;;;18.20;99.90;;;;;;6312903;28;20298;-68
2022/07/27 06:47:15;;;;;;;10.48;2.17;;;18.30;99.90;;;;;;6312841;28;20290;-68
2022/07/27 06:50:22;;;;;;;3.28;1.55;;;18.20;99.90;;;;;;6314149;28;20278;-68
2022/07/27 06:53:27;;;;;;;4.35;1.77;;;18.20;99.90;;;;;;6313148;28;20299;-68
2022/07/27 06:56:40;;;;;;;6.75;1.90;;;18.10;99.90;;;;;;6313067;28;20270;-68
2022/07/27 06:59:45;;;;;;;3.10;1.80;;;18.10;99.90;;;;;;6313074;28;20461;-68
2022/07/27 07:02:53;;;;;;;8.80;2.22;;;18.10;99.90;;;;;;6313013;28;20484;-68
2022/07/27 07:06:00;;;;;;;6.72;1.65;;;18.20;99.90;;;;;;6313273;28;20278;-68
2022/07/27 07:09:05;;;;;;;7.50;2.13;;;18.20;99.90;;;;;;6312746;28;20302;-68
2022/07/27 07:12:13;;;;;;;4.93;1.50;;;18.10;99.90;;;;;;6311653;28;20326;-68
2022/07/27 07:15:18;;;;;;;5.80;1.48;;;18.00;99.90;;;;;;6313553;28;20270;-68
2022/07/27 07:18:23;;;;;;;4.63;1.60;;;18.10;99.90;;;;;;6312024;28;20315;-68
2022/07/27 07:21:30;;;;;;;5.20;1.48;;;18.20;99.90;;;;;;6312399;28;20290;-66
2022/07/27 07:24:35;;;;;;;5.40;1.80;;;18.20;99.90;;;;;;6312460;28;20503;-66
2022/07/27 07:27:41;;;;;;;5.18;1.70;;;18.20;99.90;;;;;;6312341;28;20286;-66
2022/07/27 07:30:46;;;;;;;7.30;2.30;;;17.90;99.90;;;;;;6312821;28;20274;-68
2022/07/27 07:33:52;;;;;;;3.90;1.85;;;17.90;99.90;;;;;;6311926;28;20299;-68
2022/07/27 07:36:58;;;;;;;3.00;1.80;;;17.90;99.90;;;;;;6312461;28;20566;-67
2022/07/27 07:40:05;;;;;;;5.40;1.65;;;17.70;99.90;;;;;;6312264;28;20302;-67
2022/07/27 07:43:30;;;;;;;2.65;1.52;;;17.60;99.90;;;;;;6311307;28;20299;-67
2022/07/27 07:46:36;;;;;;;6.97;1.40;;;17.80;99.90;;;;;;6312212;28;20263;-67
2022/07/27 07:49:41;;;;;;;3.33;1.00;;;17.80;99.90;;;;;;6311616;28;20294;-67
2022/07/27 07:52:50;;;;;;;3.92;0.80;;;17.90;99.90;;;;;;6312033;28;20299;-67
2022/07/27 07:55:56;;;;;;;1.08;0.80;;;18.10;99.90;;;;;;6312027;28;20270;-67
2022/07/27 07:59:03;;;;;;;1.38;0.80;;;18.20;99.90;;;;;;6311181;28;20302;-67
2022/07/27 08:02:10;;;;;;;2.05;0.80;;;18.40;99.90;;;;;;6310798;28;20290;-67
2022/07/27 08:05:16;;;;;;;0.90;0.90;;;18.50;99.90;;;;;;6311740;28;20275;-67
2022/07/27 08:08:22;;;;;;;3.47;0.90;;;18.70;99.90;;;;;;6311368;28;20298;-67
2022/07/27 08:11:28;;;;;;;2.00;0.85;;;18.80;99.90;;;;;;6311130;28;20510;-67
2022/07/27 08:14:34;;;;;;;0.95;0.85;;;18.90;99.90;;;;;;6310881;28;20294;-67
2022/07/27 08:17:39;;;;;;;1.58;1.00;;;19.00;99.90;;;;;;6310995;28;20467;-67
2022/07/27 08:20:44;;;;;;;8.07;2.13;;;19.00;99.90;;;;;;6311387;28;20266;-67
2022/07/27 08:23:51;;;;;;;11.30;2.75;;;19.10;99.90;;;;;;6310401;28;20294;-67
2022/07/27 08:26:56;;;;;;;4.80;1.20;;;19.20;99.90;;;;;;6310564;28;20275;-67
2022/07/27 08:30:02;;;;;;;1.90;1.00;;;19.30;99.90;;;;;;6310962;28;20266;-68
2022/07/27 08:33:07;;;;;;;1.35;1.10;;;19.20;99.90;;;;;;6310849;28;20303;-67
2022/07/27 08:36:13;;;;;;;0.82;0.82;;;19.30;99.90;;;;;;6311410;28;20274;-67
2022/07/27 08:39:20;;;;;;;1.08;0.90;;;19.30;99.90;;;;;;6310257;28;20474;-67
2022/07/27 08:42:46;;;;;;;0.80;0.80;;;19.50;99.90;;;;;;6310853;28;20298;-69
2022/07/27 08:45:55;;;;;;;0.80;0.80;;;19.60;99.90;;;;;;6310541;28;20279;-69
2022/07/27 08:49:02;;;;;;;1.25;0.68;;;19.70;99.90;;;;;;6310365;28;20314;-67
2022/07/27 08:52:09;;;;;;;2.20;0.85;;;19.70;99.90;;;;;;6310688;28;20549;-68
2022/07/27 08:55:17;;;;;;;0.80;0.80;;;19.80;99.90;;;;;;6310685;28;20266;-67
2022/07/27 08:58:22;;;;;;;4.68;4.38;;;19.90;99.90;;;;;;6310565;28;20633;-68
2022/07/27 09:01:28;;;;;;;3.35;3.17;;;19.90;99.90;;;;;;6310603;28;20306;-68
2022/07/27 09:04:33;;;;;;;2.55;2.45;;;19.90;99.90;;;;;;6310087;28;20295;-68
2022/07/27 09:07:38;;;;;;;3.42;1.45;;;20.00;99.90;;;;;;6310016;28;20294;-68
2022/07/27 09:10:45;;;;;;;5.45;5.00;;;20.00;99.90;;;;;;6309961;28;20538;-68
2022/07/27 09:13:50;;;;;;;3.42;3.33;;;20.10;99.90;;;;;;6310035;28;20298;-66
2022/07/27 09:16:56;;;;;;;4.25;4.05;;;20.20;99.90;;;;;;6309969;28;20334;-66
2022/07/27 09:20:21;;;;;;;1.38;1.38;;;19.90;99.90;;;;;;6311118;28;20286;-69
2022/07/27 09:23:27;;;;;;;1.75;0.75;;;19.70;99.90;;;;;;6310488;28;20303;-69
2022/07/27 09:26:34;;;;;;;6.70;0.90;;;19.90;99.90;;;;;;6310368;28;20271;-68
2022/07/27 09:29:39;;;;;;;0.60;0.60;;;20.00;99.90;;;;;;6309948;28;20475;-68
2022/07/27 09:32:55;;;;;;;0.45;0.45;;;20.00;99.90;;;;;;6310679;28;20293;-68
2022/07/27 09:36:00;;;;;;;1.67;0.70;;;20.00;99.90;;;;;;6312327;28;20271;-68
2022/07/27 09:39:06;;;;;;;1.55;0.65;;;19.90;99.90;;;;;;6314442;28;20298;-68
2022/07/27 09:42:19;;;;;;;0.50;0.50;;;19.90;99.90;;;;;;6314716;28;20587;-68
2022/07/27 09:45:44;;;;;;;0.82;0.60;;;20.10;99.90;;;;;;6315152;28;20270;-68
2022/07/27 09:48:55;;;;;;;0.60;0.60;;;20.20;99.90;;;;;;6314537;28;20606;-68
2022/07/27 09:52:03;;;;;;;0.50;0.50;;;20.30;99.90;;;;;;6314337;28;20270;-68
2022/07/27 09:55:09;;;;;;;0.50;0.50;;;20.40;99.60;;;;;;6315236;28;20266;-68
2022/07/27 09:58:17;;;;;;;1.73;0.80;;;20.40;99.20;;;;;;6314778;28;20298;-67
2022/07/27 10:01:24;;;;;;;1.42;0.50;;;20.40;99.70;;;;;;6314520;28;20262;-68
2022/07/27 10:04:33;;;;;;;0.55;0.52;;;20.50;99.40;;;;;;6313974;28;20307;-68
2022/07/27 10:07:38;;;;;;;1.73;0.70;;;20.60;99.20;;;;;;6313886;28;20286;-68
2022/07/27 10:10:45;;;;;;;0.60;0.60;;;20.60;98.90;;;;;;6314127;28;20262;-68
2022/07/27 10:13:54;;;;;;;2.45;1.40;;;20.50;98.50;;;;;;6314010;28;20318;-69
2022/07/27 10:16:59;;;;;;;1.27;1.25;;;20.30;99.00;;;;;;6313999;28;20539;-69
2022/07/27 10:20:08;;;;;;;2.45;1.00;;;20.40;99.40;;;;;;6313914;28;20266;-68
2022/07/27 10:23:27;;;;;;;0.70;0.70;;;20.40;99.20;;;;;;6313616;28;20306;-68
2022/07/27 10:26:35;;;;;;;0.63;0.63;;;20.50;99.20;;;;;;6314221;28;20283;-68
2022/07/27 10:29:42;;;;;;;0.80;0.80;;;20.50;99.10;;;;;;6313838;28;20294;-68
2022/07/27 10:32:47;;;;;;;1.00;1.00;;;20.40;98.50;;;;;;6313468;28;20294;-68
2022/07/27 10:35:52;;;;;;;1.05;1.05;;;20.40;97.90;;;;;;6314101;28;20267;-68
2022/07/27 10:39:00;;;;;;;0.60;0.55;;;20.40;98.30;;;;;;6313317;28;20306;-68
2022/07/27 10:42:27;;;;;;;2.13;0.80;;;20.30;99.30;;;;;;6313414;28;20455;-68
2022/07/27 10:45:41;;;;;;;0.65;0.65;;;20.10;98.50;;;;;;6314463;28;20267;-68
2022/07/27 10:49:18;;;;;;;0.93;0.93;;;20.00;97.90;;;;;;6312669;28;20298;-68
2022/07/27 10:52:42;;;;;;;0.60;0.60;;;19.90;98.80;;;;;;6313471;28;20286;-68
2022/07/27 10:55:49;;;;;;;1.90;1.90;;;19.90;98.20;;;;;;6312872;28;20271;-68
2022/07/27 10:58:54;;;;;;;0.70;0.70;;;19.90;98.00;;;;;;6312980;28;20294;-68
2022/07/27 11:02:01;;;;;;;0.68;0.68;;;19.70;97.80;;;;;;6312953;28;20290;-68
2022/07/27 11:05:07;;;;;;;0.85;0.50;;;19.70;97.80;;;;;;6313298;28;20290;-68
2022/07/27 11:08:35;;;;;;;0.80;0.43;;;19.90;98.60;;;;;;6313034;28;20306;-68
2022/07/27 11:11:52;;;;;;;0.50;0.50;;;20.20;98.70;;;;;;6312810;28;20263;-69
2022/07/27 11:14:58;;;;;;;0.43;0.43;;;20.40;99.00;;;;;;6312123;28;20284;-68
2022/07/27 11:18:05;;;;;;;0.60;0.60;;;20.40;97.70;;;;;;6312119;28;20295;-67
2022/07/27 11:21:15;;;;;;;1.30;0.60;;;20.50;98.10;;;;;;6312372;28;20270;-68
2022/07/27 11:24:29;;;;;;;1.55;0.80;;;20.70;97.70;;;;;;6312611;28;20510;-68
2022/07/27 11:27:47;;;;;;;0.50;0.50;;;20.60;96.50;;;;;;6312316;28;20617;-68
2022/07/27 11:30:52;;;;;;;0.50;0.50;;;20.50;96.80;;;;;;6312894;28;20295;-68
2022/07/27 11:34:00;;;;;;;0.50;0.50;;;20.50;96.30;;;;;;6312217;28;20479;-68
2022/07/27 11:37:18;;;;;;;3.65;1.45;;;20.40;96.60;;;;;;6312034;28;20273;-67
2022/07/27 11:40:23;;;;;;;1.75;0.88;;;20.40;96.80;;;;;;6311905;28;20303;-68
2022/07/27 11:43:48;;;;;;;0.75;0.75;;;20.20;96.00;;;;;;6293988;28;20349;-68
2022/07/27 11:46:55;;;;;;;2.65;0.70;;;20.30;96.10;;;;;;6311638;28;20270;-67
2022/07/27 11:50:10;;;;;;;0.45;0.45;;;20.20;95.70;;;;;;6311940;28;20267;-68
2022/07/27 11:53:20;;;;;;;0.63;0.63;;;20.40;97.40;;;;;;6311299;28;20340;-68
2022/07/27 11:56:28;;;;;;;1.17;0.50;;;20.50;97.30;;;;;;6312120;28;20267;-67
2022/07/27 11:59:35;;;;;;;1.15;0.40;;;20.50;97.10;;;;;;6310912;28;20294;-68
2022/07/27 12:02:48;;;;;;;0.50;0.50;;;20.50;96.90;;;;;;6311688;28;20286;-68
2022/07/27 12:05:58;;;;;;;2.33;0.50;;;20.40;96.30;;;;;;6311832;28;20469;-68
2022/07/27 12:09:05;;;;;;;0.50;0.50;;;20.30;95.20;;;;;;6311459;28;20294;-68
2022/07/27 12:12:14;;;;;;;0.82;0.82;;;20.40;95.40;;;;;;6311036;28;20263;-68
2022/07/27 12:15:21;;;;;;;0.60;0.60;;;20.40;95.30;;;;;;6311805;28;20273;-67
2022/07/27 12:18:47;;;;;;;0.68;0.68;;;20.40;96.00;;;;;;6311181;28;20298;-69
2022/07/27 12:21:54;;;;;;;0.70;0.70;;;20.40;96.60;;;;;;6311621;28;20275;-69
2022/07/27 12:25:04;;;;;;;0.50;0.50;;;20.30;96.20;;;;;;6310456;28;20586;-69
2022/07/27 12:28:25;;;;;;;0.60;0.50;;;20.30;96.00;;;;;;6310991;28;20299;-68
2022/07/27 12:31:30;;;;;;;0.63;0.60;;;20.10;96.00;;;;;;6311503;28;20270;-69
2022/07/27 12:34:36;;;;;;;0.70;0.70;;;20.00;96.40;;;;;;6310866;28;20559;-69
2022/07/27 12:37:43;;;;;;;0.63;0.50;;;20.10;96.80;;;;;;6310689;28;20294;-69
2022/07/27 12:40:50;;;;;;;1.15;0.52;;;20.00;96.60;;;;;;6310945;28;20299;-68
2022/07/27 12:44:08;;;;;;;0.40;0.40;;;20.00;96.50;;;;;;6310754;28;20298;-68
2022/07/27 12:50:37;;;;;;;0.85;0.85;;;20.10;96.30;;;;;;6311381;28;20271;-68
2022/07/27 12:53:44;;;;;;;2.40;0.80;;;20.20;96.80;;;;;;6310519;28;20582;-68
2022/07/27 12:56:49;;;;;;;0.50;0.50;;;20.20;96.40;;;;;;6310733;28;20279;-68
2022/07/27 12:59:54;;;;;;;0.63;0.60;;;20.20;95.70;;;;;;6309563;28;20319;-68
2022/07/27 13:03:01;;;;;;;0.55;0.55;;;20.20;96.60;;;;;;6310202;28;20290;-68
2022/07/27 13:06:06;;;;;;;0.50;0.50;;;20.20;96.20;;;;;;6326004;28;20467;-68
2022/07/27 13:09:18;;;;;;;0.70;0.70;;;20.30;96.50;;;;;;6309893;28;20324;-68
2022/07/27 13:12:24;;;;;;;0.75;0.70;;;20.20;95.70;;;;;;6309899;28;20294;-68
2022/07/27 13:15:29;;;;;;;0.68;0.68;;;20.20;95.50;;;;;;6310415;28;20274;-68
2022/07/27 13:18:34;;;;;;;0.70;0.63;;;20.10;95.00;;;;;;6309711;28;20307;-68
2022/07/27 13:21:39;;;;;;;0.73;0.60;;;20.20;95.10;;;;;;6310402;28;20274;-68
2022/07/27 13:24:46;;;;;;;0.60;0.60;;;20.20;95.60;;;;;;6309852;28;20295;-68
2022/07/27 13:27:53;;;;;;;0.57;0.57;;;20.30;95.10;;;;;;6309737;28;20474;-68
2022/07/27 13:30:59;;;;;;;0.50;0.50;;;20.40;95.50;;;;;;6310415;28;20570;-68
2022/07/27 13:34:04;;;;;;;0.60;0.60;;;20.50;95.50;;;;;;6309574;28;20294;-68
2022/07/27 13:37:10;;;;;;;0.60;0.60;;;20.30;94.20;;;;;;6309757;28;20362;-68
2022/07/27 13:40:17;;;;;;;0.60;0.60;;;20.10;95.00;;;;;;6310396;28;20447;-68
2022/07/27 13:43:22;;;;;;;0.63;0.63;;;20.20;94.60;;;;;;6309207;28;20297;-68
2022/07/27 13:46:28;;;;;;;0.52;0.52;;;20.20;95.50;;;;;;6309649;28;20291;-68
2022/07/27 13:49:33;;;;;;;0.50;0.50;;;20.20;94.80;;;;;;6309722;28;20290;-68
2022/07/27 13:52:38;;;;;;;0.50;0.50;;;20.10;94.40;;;;;;6309547;28;20334;-68
2022/07/27 13:55:45;;;;;;;0.80;0.80;;;20.10;95.00;;;;;;6309643;28;20278;-68
2022/07/27 13:58:51;;;;;;;1.08;0.70;;;20.20;95.10;;;;;;6309436;28;20614;-68
2022/07/27 14:01:56;;;;;;;0.65;0.65;;;20.10;95.30;;;;;;6309211;28;20271;-68
2022/07/27 14:05:01;;;;;;;0.80;0.70;;;20.20;94.90;;;;;;6309653;28;20270;-68
2022/07/27 14:08:11;;;;;;;0.70;0.70;;;20.20;95.40;;;;;;6309065;28;20302;-68
2022/07/27 14:11:17;;;;;;;2.22;0.80;;;20.10;95.20;;;;;;6309289;28;20262;-68
2022/07/27 14:14:22;;;;;;;0.68;0.68;;;20.20;95.50;;;;;;6309381;28;20299;-68
2022/07/27 14:17:31;;;;;;;0.63;0.60;;;20.20;95.30;;;;;;6308995;28;20298;-68
2022/07/27 14:20:36;;;;;;;1.67;0.50;;;20.10;95.70;;;;;;6309218;28;20455;-68
2022/07/27 14:23:42;;;;;;;0.77;0.77;;;20.20;95.80;;;;;;6313661;28;20307;-68
2022/07/27 14:26:48;;;;;;;1.40;0.75;;;20.20;95.30;;;;;;6313332;28;20294;-68
2022/07/27 14:29:54;;;;;;;0.70;0.70;;;20.10;95.40;;;;;;6313548;28;20277;-68
2022/07/27 14:33:01;;;;;;;0.60;0.60;;;20.10;95.20;;;;;;6313463;28;20306;-68
2022/07/27 14:36:08;;;;;;;2.75;0.70;;;20.00;95.10;;;;;;6313144;28;20585;-68
2022/07/27 14:39:13;;;;;;;2.67;0.80;;;20.10;95.70;;;;;;6312645;28;20314;-67
2022/07/27 14:42:23;;;;;;;0.90;0.90;;;20.00;95.00;;;;;;6313567;28;20282;-68
2022/07/27 14:45:29;;;;;;;0.95;0.95;;;20.00;94.90;;;;;;6313624;28;20290;-67
2022/07/27 14:48:50;;;;;;;1.95;1.55;;;20.00;95.00;;;;;;6312662;28;20289;-67
2022/07/27 14:52:13;;;;;;;1.50;1.50;;;20.00;94.70;;;;;;6312722;28;20270;-68
2022/07/27 14:55:18;;;;;;;1.52;1.42;;;20.00;95.30;;;;;;6313617;28;20266;-67
2022/07/27 14:58:26;;;;;;;1.50;1.50;;;19.90;96.10;;;;;;6313160;28;20306;-67
2022/07/27 15:01:31;;;;;;;0.90;0.90;;;19.80;97.10;;;;;;6312566;28;20270;-68
2022/07/27 15:04:36;;;;;;;0.98;0.98;;;19.60;97.10;;;;;;6312644;28;20303;-67
2022/07/27 15:07:42;;;;;;;1.20;1.20;;;19.40;97.60;;;;;;6312145;28;20294;-68
2022/07/27 15:10:48;;;;;;;0.70;0.70;;;19.40;97.30;;;;;;6312841;28;20267;-67
2022/07/27 15:13:54;;;;;;;0.73;0.73;;;19.40;97.30;;;;;;6312334;28;20294;-67
2022/07/27 15:16:59;;;;;;;0.82;0.82;;;19.40;97.80;;;;;;6311773;28;20561;-67
2022/07/27 15:20:07;;;;;;;0.88;0.70;;;19.40;97.50;;;;;;6312736;28;20280;-67
2022/07/27 15:23:13;;;;;;;0.82;0.82;;;19.30;97.40;;;;;;6312353;28;20295;-67
2022/07/27 15:26:18;;;;;;;0.70;0.70;;;19.40;97.00;;;;;;6312051;28;20271;-67
2022/07/27 15:29:25;;;;;;;0.60;0.60;;;19.30;97.00;;;;;;6312015;28;20294;-67
2022/07/27 15:32:30;;;;;;;0.68;0.68;;;19.30;96.80;;;;;;6311627;28;20290;-68
2022/07/27 15:35:35;;;;;;;0.70;0.70;;;19.30;97.00;;;;;;6312736;28;20275;-67
2022/07/27 15:38:41;;;;;;;2.10;1.00;;;19.30;97.00;;;;;;6311019;28;20326;-68
2022/07/27 15:41:46;;;;;;;0.80;0.80;;;19.30;97.70;;;;;;6310021;28;20301;-67
2022/07/27 15:44:53;;;;;;;1.20;1.20;;;19.30;97.10;;;;;;6311533;28;20601;-67
2022/07/27 15:47:59;;;;;;;1.33;1.33;;;19.30;96.80;;;;;;6311409;28;20298;-67
2022/07/27 15:51:05;;;;;;;1.05;1.05;;;19.30;97.30;;;;;;6312008;28;20199;-67
2022/07/27 15:54:12;;;;;;;0.98;0.90;;;19.30;96.90;;;;;;6311897;28;20303;-67
2022/07/27 15:57:18;;;;;;;1.10;1.10;;;19.30;96.70;;;;;;6311265;28;20297;-68
2022/07/27 16:00:24;;;;;;;1.20;1.20;;;19.20;96.40;;;;;;6312088;28;20569;-68
2022/07/27 16:03:30;;;;;;;0.80;0.70;;;19.30;96.60;;;;;;6310938;28;20298;-67
2022/07/27 16:06:36;;;;;;;0.90;0.90;;;19.30;96.30;;;;;;6311495;28;20270;-68
2022/07/27 16:09:43;;;;;;;1.10;1.10;;;19.30;96.50;;;;;;6311137;28;20458;-68
2022/07/27 16:12:48;;;;;;;1.42;1.23;;;19.30;96.30;;;;;;6311956;28;20597;-68
2022/07/27 16:19:32;;;;;;;1.40;0.95;;;19.20;96.20;;;;;;6185369;28;20309;-67
2022/07/27 16:22:38;;;;;;;0.98;0.90;;;19.30;96.60;;;;;;6185562;28;20297;-67
2022/07/27 16:25:43;;;;;;;1.38;1.38;;;19.30;96.30;;;;;;6308373;28;20313;-67